Impacts TAF Board INFO
FOR SITUATIONAL AWARENESS. NOT TO BE USED FOR FLIGHT PLANNING PURPOSES.
IDs:

KLGA - New York/La Guardia, NY, US

Issued at 1933 UTC 24 Apr 2018
Updated at 2047 UTC 24 Apr 2018
Potential Impact None Slight Moderate High
Time1951Z 24/21Z 24/22Z 24/23Z 25/00Z 25/01Z 25/02Z 25/03Z 25/04Z 25/05Z 25/06Z 25/07Z 25/08Z 25/09Z>>
Type OBS PRVL PRVL PRVL PRVL PRVL PRVL PRVL PRVL PRVL PRVL PRVL PRVL PRVL
VIS 10 >6 >6 >6 >6 >6 >6 6 6 6 3 3 3 3
CIG 250 250 120 120 120 120 120 20 20 20 8 8 8 8
Cover OVC BKN BKN BKN BKN BKN BKN OVC OVC OVC OVC OVC OVC OVC
FltCat VFR VFR VFR VFR VFR VFR VFR MVFR MVFR MVFR IFR IFR IFR IFR
WX -- -- -- -- -- -- -- -RA -RA -RA -RA BR -RA BR -RA BR -RA BR
WDir 140 150 110 110 110 110 110 80 80 80 60 60 60 60
WSpd 15 13 11 11 11 11 11 11 11 11 12 12 12 12
WGst 19 20 -- -- -- -- -- -- -- -- -- -- -- --

Raw TAF
KLGA 241933Z 2420/2524 15013G20KT P6SM SCT050 SCT120 BKN250
  FM242200 11011KT P6SM SCT050 BKN120
  FM250300 08011KT 6SM -RA SCT008 OVC020
  FM250600 06012KT 3SM -RA BR OVC008
  TEMPO 2510/2514 1 1/2SM +RA BR OVC010
  FM251400 11012KT 2SM -RA BR OVC006
  FM251900 08008KT 2SM -RA BR OVC005


Raw METAR
KLGA 241951Z 14015G19KT 10SM SCT050 SCT150 OVC250 17/04 A3027 RMK AO2 SLP250 T01720039
KLGA 241851Z 15015G21KT 10SM SCT050 SCT150 BKN250 18/04 A3030 RMK AO2 SLP260 T01830044
KLGA 241751Z 16015G21KT 10SM FEW050 FEW150 BKN250 18/02 A3033 RMK AO2 SLP270 T01830022 10189 20089 58020

METAR Board
Radar Display
Forecast Discussion

FOR SITUATIONAL AWARENESS. NOT TO BE USED FOR FLIGHT PLANNING PURPOSES.